This is the latest recevied weather packets stored in our database for station/object KD8OZS. If no packets are shown the sender has not sent any weather packets the latest 10 day(s).
| Time | Temp. | Humidity | Pressure | Rain* | Wind** | Luminosity | Snow |
|---|---|---|---|---|---|---|---|
| 1777930008 | 22.78° C | 53% | 998 hPa | 0 mm | - | 286 W/m² | - |
| 1777929704 | 22.22° C | 54% | 998.1 hPa | 0 mm | - | 287 W/m² | - |
| 1777929402 | 22.78° C | 55% | 998 hPa | 0 mm | - | 129 W/m² | - |
| 1777929098 | 22.78° C | 54% | 997.7 hPa | 0 mm | - | 442 W/m² | - |
| 1777928796 | 23.33° C | 51% | 997.8 hPa | 0 mm | - | 444 W/m² | - |
| 1777928492 | 22.78° C | 52% | 998 hPa | 0 mm | - | 425 W/m² | - |
| 1777928190 | 22.78° C | 53% | 998.3 hPa | 0 mm | - | 161 W/m² | - |
| 1777927887 | 22.78° C | 53% | 998 hPa | 0 mm | - | 507 W/m² | - |
| 1777927586 | 22.22° C | 55% | 998.3 hPa | 0 mm | - | 210 W/m² | - |
| 1777927284 | 21.67° C | 55% | 998.4 hPa | 0 mm | - | 172 W/m² | - |
| 1777926982 | 22.22° C | 55% | 998.4 hPa | 0 mm | - | 170 W/m² | - |
| 1777926680 | 22.78° C | 53% | 998.3 hPa | 0 mm | - | 193 W/m² | - |
| 1777926374 | 23.33° C | 53% | 998.2 hPa | 0 mm | - | 338 W/m² | - |
| 1777926071 | 22.78° C | 52% | 998.4 hPa | 0 mm | - | 543 W/m² | - |
| 1777925768 | 22.22° C | 54% | 998.6 hPa | 0 mm | - | 524 W/m² | - |
| 1777925466 | 22.22° C | 54% | 998.4 hPa | 0 mm | - | 152 W/m² | - |
| 1777925163 | 22.22° C | 54% | 998.7 hPa | 0 mm | - | 424 W/m² | - |
| 1777924859 | 22.22° C | 54% | 998.6 hPa | 0 mm | - | 175 W/m² | - |
| 1777924555 | 22.22° C | 56% | 998.6 hPa | 0 mm | - | 239 W/m² | - |
| 1777924252 | 22.78° C | 53% | 998.5 hPa | 0 mm | - | 372 W/m² | - |
| 1777923949 | 22.78° C | 53% | 998.5 hPa | 0 mm | - | 583 W/m² | - |
| 1777923644 | 23.33° C | 52% | 998.5 hPa | 0 mm | - | 274 W/m² | - |
| 1777923341 | 23.33° C | 52% | 998.6 hPa | 0 mm | - | 604 W/m² | - |
| 1777923040 | 22.22° C | 55% | 998.9 hPa | 0 mm | - | 655 W/m² | - |
| 1777922738 | 23.33° C | 53% | 998.6 hPa | 0 mm | - | 581 W/m² | - |
* Rain latest hour (hover to see other rain measurements)
** Current wind speed in m/s (hover to see current wind gust speed)